sensor_id;sensor_type;location;lat;lon;timestamp;temperature;humidity
24097;DHT22;12275;48.550;12.132;2023-06-26T18:57:59;22.40;99.90
24097;DHT22;12275;48.550;12.132;2023-06-26T19:00:25;23.60;99.90
24097;DHT22;12275;48.550;12.132;2023-06-26T19:02:51;23.30;99.90
24097;DHT22;12275;48.550;12.132;2023-06-26T19:05:16;23.30;99.90
24097;DHT22;12275;48.550;12.132;2023-06-26T19:07:45;23.50;99.90
24097;DHT22;12275;48.550;12.132;2023-06-26T19:10:11;23.70;99.90
24097;DHT22;12275;48.550;12.132;2023-06-26T19:12:41;23.70;99.90
24097;DHT22;12275;48.550;12.132;2023-06-26T19:15:07;23.70;99.90
24097;DHT22;12275;48.550;12.132;2023-06-26T19:17:33;23.70;99.90
24097;DHT22;12275;48.550;12.132;2023-06-26T19:19:58;23.40;99.90
24097;DHT22;12275;48.550;12.132;2023-06-26T19:22:27;23.30;99.90
24097;DHT22;12275;48.550;12.132;2023-06-26T19:24:53;23.30;99.90
24097;DHT22;12275;48.550;12.132;2023-06-26T19:27:18;23.20;99.90
24097;DHT22;12275;48.550;12.132;2023-06-26T19:29:44;23.10;99.90
24097;DHT22;12275;48.550;12.132;2023-06-26T19:32:10;22.90;99.90
24097;DHT22;12275;48.550;12.132;2023-06-26T19:34:35;22.90;99.90
24097;DHT22;12275;48.550;12.132;2023-06-26T19:37:01;22.90;99.90
24097;DHT22;12275;48.550;12.132;2023-06-26T19:39:27;22.80;99.90
24097;DHT22;12275;48.550;12.132;2023-06-26T19:41:53;22.70;99.90
24097;DHT22;12275;48.550;12.132;2023-06-26T19:44:18;22.50;99.90
24097;DHT22;12275;48.550;12.132;2023-06-26T19:46:47;22.60;99.90
24097;DHT22;12275;48.550;12.132;2023-06-26T19:49:12;22.70;99.90
24097;DHT22;12275;48.550;12.132;2023-06-26T19:51:38;22.60;99.90
24097;DHT22;12275;48.550;12.132;2023-06-26T19:54:03;22.60;99.90
24097;DHT22;12275;48.550;12.132;2023-06-26T19:56:29;22.80;99.90
24097;DHT22;12275;48.550;12.132;2023-06-26T19:58:55;22.90;99.90
24097;DHT22;12275;48.550;12.132;2023-06-26T20:01:21;22.90;99.90
24097;DHT22;12275;48.550;12.132;2023-06-26T20:03:47;22.70;99.90
24097;DHT22;12275;48.550;12.132;2023-06-26T20:06:13;22.60;99.90
24097;DHT22;12275;48.550;12.132;2023-06-26T20:08:40;22.60;99.90
24097;DHT22;12275;48.550;12.132;2023-06-26T20:11:05;22.70;99.90
24097;DHT22;12275;48.550;12.132;2023-06-26T20:13:31;22.50;99.90
24097;DHT22;12275;48.550;12.132;2023-06-26T20:15:56;22.50;99.90
24097;DHT22;12275;48.550;12.132;2023-06-26T20:18:23;22.40;99.90
24097;DHT22;12275;48.550;12.132;2023-06-26T20:20:50;22.50;99.90
24097;DHT22;12275;48.550;12.132;2023-06-26T20:23:16;22.50;99.90
24097;DHT22;12275;48.550;12.132;2023-06-26T20:25:42;22.40;99.90
24097;DHT22;12275;48.550;12.132;2023-06-26T20:28:09;22.30;99.90
24097;DHT22;12275;48.550;12.132;2023-06-26T20:30:35;22.10;99.90
24097;DHT22;12275;48.550;12.132;2023-06-26T20:33:00;21.90;99.90
24097;DHT22;12275;48.550;12.132;2023-06-26T20:35:26;22.00;99.90
24097;DHT22;12275;48.550;12.132;2023-06-26T20:37:51;22.00;99.90
24097;DHT22;12275;48.550;12.132;2023-06-26T20:40:18;21.90;99.90
24097;DHT22;12275;48.550;12.132;2023-06-26T20:42:44;21.80;99.90
24097;DHT22;12275;48.550;12.132;2023-06-26T20:45:10;21.70;99.90
24097;DHT22;12275;48.550;12.132;2023-06-26T20:47:36;21.60;99.90
24097;DHT22;12275;48.550;12.132;2023-06-26T20:50:08;21.60;99.90
24097;DHT22;12275;48.550;12.132;2023-06-26T20:52:34;21.60;99.90
24097;DHT22;12275;48.550;12.132;2023-06-26T20:55:02;21.70;99.90
24097;DHT22;12275;48.550;12.132;2023-06-26T20:57:28;21.70;99.90
24097;DHT22;12275;48.550;12.132;2023-06-26T20:59:54;21.70;99.90
24097;DHT22;12275;48.550;12.132;2023-06-26T21:02:20;21.80;99.90
24097;DHT22;12275;48.550;12.132;2023-06-26T21:04:46;21.80;99.90
24097;DHT22;12275;48.550;12.132;2023-06-26T21:07:11;21.80;99.90
24097;DHT22;12275;48.550;12.132;2023-06-26T21:09:37;21.70;99.90
24097;DHT22;12275;48.550;12.132;2023-06-26T21:12:03;21.80;99.90
24097;DHT22;12275;48.550;12.132;2023-06-26T21:14:29;21.70;99.90
24097;DHT22;12275;48.550;12.132;2023-06-26T21:16:54;21.60;99.90
24097;DHT22;12275;48.550;12.132;2023-06-26T21:19:20;21.50;99.90
24097;DHT22;12275;48.550;12.132;2023-06-26T21:21:46;21.50;99.90
24097;DHT22;12275;48.550;12.132;2023-06-26T21:24:11;21.50;99.90
24097;DHT22;12275;48.550;12.132;2023-06-26T21:26:37;21.60;99.90
24097;DHT22;12275;48.550;12.132;2023-06-26T21:29:03;21.60;99.90
24097;DHT22;12275;48.550;12.132;2023-06-26T21:31:29;21.50;99.90
24097;DHT22;12275;48.550;12.132;2023-06-26T21:33:54;21.50;99.90
24097;DHT22;12275;48.550;12.132;2023-06-26T21:36:20;21.50;99.90
24097;DHT22;12275;48.550;12.132;2023-06-26T21:38:45;21.40;99.90
24097;DHT22;12275;48.550;12.132;2023-06-26T21:41:11;21.10;99.90
24097;DHT22;12275;48.550;12.132;2023-06-26T21:43:37;21.10;99.90
24097;DHT22;12275;48.550;12.132;2023-06-26T21:46:03;21.10;99.90
24097;DHT22;12275;48.550;12.132;2023-06-26T21:48:28;21.30;99.90
24097;DHT22;12275;48.550;12.132;2023-06-26T21:50:54;21.30;99.90
24097;DHT22;12275;48.550;12.132;2023-06-26T21:53:20;21.30;99.90
24097;DHT22;12275;48.550;12.132;2023-06-26T21:55:46;21.30;99.90
24097;DHT22;12275;48.550;12.132;2023-06-26T21:58:12;21.40;99.90
24097;DHT22;12275;48.550;12.132;2023-06-26T22:00:37;21.30;99.90
24097;DHT22;12275;48.550;12.132;2023-06-26T22:03:03;21.40;99.90
24097;DHT22;12275;48.550;12.132;2023-06-26T22:05:30;21.20;99.90
24097;DHT22;12275;48.550;12.132;2023-06-26T22:07:55;21.20;99.90
24097;DHT22;12275;48.550;12.132;2023-06-26T22:10:21;21.10;99.90
24097;DHT22;12275;48.550;12.132;2023-06-26T22:12:47;21.00;99.90
24097;DHT22;12275;48.550;12.132;2023-06-26T22:15:13;21.10;99.90
24097;DHT22;12275;48.550;12.132;2023-06-26T22:17:51;21.20;99.90
24097;DHT22;12275;48.550;12.132;2023-06-26T22:20:17;21.30;99.90
24097;DHT22;12275;48.550;12.132;2023-06-26T22:22:43;21.20;99.90
24097;DHT22;12275;48.550;12.132;2023-06-26T22:25:10;21.20;99.90
24097;DHT22;12275;48.550;12.132;2023-06-26T22:27:37;21.20;99.90
24097;DHT22;12275;48.550;12.132;2023-06-26T22:30:03;21.30;99.90
24097;DHT22;12275;48.550;12.132;2023-06-26T22:32:29;21.20;99.90
24097;DHT22;12275;48.550;12.132;2023-06-26T22:34:56;21.20;99.90
24097;DHT22;12275;48.550;12.132;2023-06-26T22:37:21;21.20;99.90
24097;DHT22;12275;48.550;12.132;2023-06-26T22:39:47;21.20;99.90
24097;DHT22;12275;48.550;12.132;2023-06-26T22:42:13;21.20;99.90
24097;DHT22;12275;48.550;12.132;2023-06-26T22:44:38;21.20;99.90
24097;DHT22;12275;48.550;12.132;2023-06-26T22:47:04;21.10;99.90
24097;DHT22;12275;48.550;12.132;2023-06-26T22:49:30;20.90;99.90
24097;DHT22;12275;48.550;12.132;2023-06-26T22:51:55;20.90;99.90
24097;DHT22;12275;48.550;12.132;2023-06-26T22:54:21;20.80;99.90
24097;DHT22;12275;48.550;12.132;2023-06-26T22:56:47;20.80;99.90
24097;DHT22;12275;48.550;12.132;2023-06-26T22:59:12;20.80;99.90
24097;DHT22;12275;48.550;12.132;2023-06-26T23:01:38;20.80;99.90
24097;DHT22;12275;48.550;12.132;2023-06-26T23:04:05;20.80;99.90
24097;DHT22;12275;48.550;12.132;2023-06-26T23:06:33;20.90;99.90
24097;DHT22;12275;48.550;12.132;2023-06-26T23:08:59;20.90;99.90
24097;DHT22;12275;48.550;12.132;2023-06-26T23:11:25;20.90;99.90
24097;DHT22;12275;48.550;12.132;2023-06-26T23:13:52;20.90;99.90
24097;DHT22;12275;48.550;12.132;2023-06-26T23:16:17;20.90;99.90
24097;DHT22;12275;48.550;12.132;2023-06-26T23:18:43;20.90;99.90
24097;DHT22;12275;48.550;12.132;2023-06-26T23:21:09;20.80;99.90
24097;DHT22;12275;48.550;12.132;2023-06-26T23:23:34;20.90;99.90
24097;DHT22;12275;48.550;12.132;2023-06-26T23:26:02;20.80;99.90
24097;DHT22;12275;48.550;12.132;2023-06-26T23:28:28;20.60;99.90
24097;DHT22;12275;48.550;12.132;2023-06-26T23:30:58;20.50;99.90
24097;DHT22;12275;48.550;12.132;2023-06-26T23:33:24;20.60;99.90
24097;DHT22;12275;48.550;12.132;2023-06-26T23:35:55;20.50;99.90
24097;DHT22;12275;48.550;12.132;2023-06-26T23:38:20;20.60;99.90
24097;DHT22;12275;48.550;12.132;2023-06-26T23:40:46;20.60;99.90
24097;DHT22;12275;48.550;12.132;2023-06-26T23:43:11;20.50;99.90
24097;DHT22;12275;48.550;12.132;2023-06-26T23:45:40;20.50;99.90
24097;DHT22;12275;48.550;12.132;2023-06-26T23:48:07;20.40;99.90
24097;DHT22;12275;48.550;12.132;2023-06-26T23:50:33;20.30;99.90
24097;DHT22;12275;48.550;12.132;2023-06-26T23:52:59;20.10;99.90
24097;DHT22;12275;48.550;12.132;2023-06-26T23:55:25;20.00;99.90
24097;DHT22;12275;48.550;12.132;2023-06-26T23:57:52;19.80;99.90
